createdAt,value
2019-05-28T00:01:58.136Z,2.55
2019-05-28T00:04:27.758Z,2.77
2019-05-28T00:06:57.236Z,2.72
2019-05-28T00:09:26.743Z,2.87
2019-05-28T00:11:56.270Z,2.67
2019-05-28T00:14:25.727Z,3.25
2019-05-28T00:16:55.337Z,3.50
2019-05-28T00:19:24.782Z,3.30
2019-05-28T00:21:54.288Z,3.00
2019-05-28T00:24:23.882Z,2.42
2019-05-28T00:26:53.400Z,2.50
2019-05-28T00:29:22.858Z,3.00
2019-05-28T00:31:52.431Z,3.58
2019-05-28T00:34:21.907Z,2.40
2019-05-28T00:36:51.387Z,2.58
2019-05-28T00:39:20.892Z,2.35
2019-05-28T00:41:50.432Z,2.35
2019-05-28T00:44:19.995Z,2.27
2019-05-28T00:46:49.546Z,2.20
2019-05-28T00:49:19.025Z,2.52
2019-05-28T00:51:48.550Z,3.00
2019-05-28T00:54:18.035Z,2.72
2019-05-28T00:56:49.186Z,2.30
2019-05-28T00:59:19.657Z,3.22
2019-05-28T01:01:49.160Z,3.15
2019-05-28T01:04:18.642Z,2.15
2019-05-28T01:06:48.415Z,3.00
2019-05-28T01:09:17.988Z,2.90
2019-05-28T01:11:47.510Z,3.00
2019-05-28T01:14:16.994Z,2.90
2019-05-28T01:16:46.418Z,3.02
2019-05-28T01:19:16.008Z,2.62
2019-05-28T01:21:45.468Z,3.10
2019-05-28T01:24:14.960Z,2.95
2019-05-28T01:26:44.472Z,3.00
2019-05-28T01:29:13.986Z,3.15
2019-05-28T01:31:43.651Z,3.22
2019-05-28T01:34:13.089Z,3.10
2019-05-28T01:36:42.616Z,3.10
2019-05-28T01:39:12.203Z,3.45
2019-05-28T01:41:41.745Z,2.90
2019-05-28T01:44:11.248Z,2.70
2019-05-28T01:46:40.773Z,3.80
2019-05-28T01:49:10.230Z,2.47
2019-05-28T01:51:39.722Z,2.92
2019-05-28T01:54:09.234Z,3.83
2019-05-28T01:56:38.705Z,3.40
2019-05-28T01:59:08.247Z,3.35
2019-05-28T02:01:37.696Z,3.90
2019-05-28T02:04:07.219Z,3.37
2019-05-28T02:06:36.693Z,4.45
2019-05-28T02:09:07.460Z,4.03
2019-05-28T02:11:36.998Z,3.60
2019-05-28T02:14:06.815Z,3.37
2019-05-28T02:16:36.308Z,3.55
2019-05-28T02:19:05.823Z,3.98
2019-05-28T02:21:35.279Z,3.87
2019-05-28T02:24:04.927Z,4.00
2019-05-28T02:26:34.371Z,3.30
2019-05-28T02:29:03.849Z,4.08
2019-05-28T02:31:33.363Z,3.45
2019-05-28T02:34:02.811Z,3.12
2019-05-28T02:36:32.297Z,3.22
2019-05-28T02:39:01.750Z,2.70
2019-05-28T02:41:31.242Z,2.85
2019-05-28T02:44:00.742Z,3.45
2019-05-28T02:46:30.243Z,2.62
2019-05-28T02:48:59.726Z,3.62
2019-05-28T02:51:29.359Z,3.50
2019-05-28T02:53:59.506Z,3.42
2019-05-28T02:56:31.212Z,2.85
2019-05-28T02:59:01.308Z,3.27
2019-05-28T03:01:43.598Z,3.10
2019-05-28T03:04:04.851Z,3.25
2019-05-28T03:06:36.783Z,3.87
2019-05-28T03:09:08.285Z,3.62
2019-05-28T03:11:37.844Z,3.25
2019-05-28T03:14:07.323Z,4.12
2019-05-28T03:16:40.246Z,2.80
2019-05-28T03:19:10.482Z,2.55
2019-05-28T03:21:41.003Z,4.25
2019-05-28T03:24:12.044Z,3.20
2019-05-28T03:26:41.503Z,3.80
2019-05-28T03:29:10.947Z,3.27
2019-05-28T03:31:40.487Z,2.85
2019-05-28T03:34:09.927Z,3.87
2019-05-28T03:36:39.738Z,3.72
2019-05-28T03:39:09.372Z,3.92
2019-05-28T03:41:38.862Z,3.27
2019-05-28T03:44:08.370Z,4.33
2019-05-28T03:46:37.803Z,2.95
2019-05-28T03:49:07.600Z,3.75
2019-05-28T03:51:37.080Z,3.50
2019-05-28T03:54:06.542Z,3.33
2019-05-28T03:56:36.004Z,3.50
2019-05-28T03:59:05.628Z,3.50
2019-05-28T04:01:35.273Z,2.98
2019-05-28T04:04:04.858Z,3.20
2019-05-28T04:06:34.353Z,3.37
2019-05-28T04:09:04.650Z,3.37
2019-05-28T04:11:44.470Z,3.15
2019-05-28T04:14:05.871Z,3.45
2019-05-28T04:16:35.639Z,5.83
2019-05-28T04:19:05.917Z,4.25
2019-05-28T04:21:35.395Z,4.45
2019-05-28T04:24:05.114Z,3.47
2019-05-28T04:26:34.619Z,3.15
2019-05-28T04:29:04.195Z,3.33
2019-05-28T04:31:33.619Z,3.75
2019-05-28T04:34:03.145Z,3.75
2019-05-28T04:36:32.610Z,4.10
2019-05-28T04:39:02.107Z,3.95
2019-05-28T04:41:31.612Z,3.50
2019-05-28T04:44:01.219Z,3.58
2019-05-28T04:46:30.719Z,4.33
2019-05-28T04:49:00.239Z,4.20
2019-05-28T04:51:29.736Z,4.33
2019-05-28T04:53:59.192Z,4.55
2019-05-28T04:56:28.694Z,4.50
2019-05-28T04:58:58.152Z,3.92
2019-05-28T05:01:27.628Z,4.10
2019-05-28T05:03:57.162Z,4.72
2019-05-28T05:06:26.690Z,4.45
2019-05-28T05:08:56.298Z,5.20
2019-05-28T05:11:25.779Z,5.47
2019-05-28T05:13:55.292Z,5.35
2019-05-28T05:16:24.768Z,5.67
2019-05-28T05:18:54.240Z,7.03
2019-05-28T05:21:23.867Z,5.40
2019-05-28T05:23:53.315Z,5.58
2019-05-28T05:26:22.773Z,5.35
2019-05-28T05:28:52.358Z,6.15
2019-05-28T05:31:21.868Z,5.47
2019-05-28T05:33:56.142Z,6.30
2019-05-28T05:36:25.833Z,6.83
2019-05-28T05:38:55.377Z,5.72
2019-05-28T05:41:24.904Z,5.70
2019-05-28T05:43:56.944Z,5.72
2019-05-28T05:46:26.478Z,6.80
2019-05-28T05:48:56.140Z,5.85
2019-05-28T05:51:25.620Z,6.72
2019-05-28T05:53:55.105Z,6.67
2019-05-28T05:56:24.588Z,5.47
2019-05-28T05:58:54.101Z,5.87
2019-05-28T06:01:24.525Z,5.85
2019-05-28T06:03:54.017Z,6.30
2019-05-28T06:06:23.595Z,6.62
2019-05-28T06:08:55.937Z,7.28
2019-05-28T06:11:25.385Z,7.40
2019-05-28T06:13:54.958Z,6.05
2019-05-28T06:16:24.461Z,6.80
2019-05-28T06:18:53.981Z,6.80
2019-05-28T06:21:23.437Z,6.35
2019-05-28T06:23:52.865Z,6.37
2019-05-28T06:26:22.322Z,6.22
2019-05-28T06:28:51.734Z,5.53
2019-05-28T06:31:21.283Z,6.28
2019-05-28T06:33:56.639Z,6.33
2019-05-28T06:36:21.898Z,5.78
2019-05-28T06:38:51.472Z,6.70
2019-05-28T06:41:20.975Z,6.55
2019-05-28T06:43:50.427Z,5.93
2019-05-28T06:46:19.912Z,6.20
2019-05-28T06:48:49.401Z,6.00
2019-05-28T06:51:18.939Z,6.58
2019-05-28T06:53:48.456Z,5.97
2019-05-28T06:56:18.079Z,5.80
2019-05-28T06:58:47.523Z,6.43
2019-05-28T07:01:17.019Z,6.95
2019-05-28T07:03:46.513Z,6.60
2019-05-28T07:06:16.076Z,6.40
2019-05-28T07:08:45.576Z,6.07
2019-05-28T07:11:15.149Z,6.70
2019-05-28T07:13:44.637Z,7.80
2019-05-28T07:16:14.133Z,7.23
2019-05-28T07:18:43.721Z,6.80
2019-05-28T07:21:13.228Z,6.37
2019-05-28T07:23:42.820Z,7.45
2019-05-28T07:26:12.288Z,6.63
2019-05-28T07:28:41.808Z,7.25
2019-05-28T07:31:12.199Z,7.33
2019-05-28T07:33:41.708Z,7.33
2019-05-28T07:36:11.285Z,7.65
2019-05-28T07:38:40.874Z,8.53
2019-05-28T07:41:10.379Z,7.55
2019-05-28T07:43:39.854Z,6.97
2019-05-28T07:46:09.373Z,6.03
2019-05-28T07:48:38.848Z,7.00
2019-05-28T07:51:08.286Z,7.00
2019-05-28T07:53:40.444Z,8.07
2019-05-28T07:56:09.776Z,6.50
2019-05-28T07:58:39.504Z,7.43
2019-05-28T08:01:09.044Z,6.30
2019-05-28T08:03:38.662Z,6.40
2019-05-28T08:06:08.139Z,6.73
2019-05-28T08:08:37.675Z,7.50
2019-05-28T08:11:07.270Z,6.03
2019-05-28T08:13:40.867Z,6.33
2019-05-28T08:16:18.191Z,5.43
2019-05-28T08:18:39.127Z,6.77
2019-05-28T08:21:08.658Z,6.90
2019-05-28T08:23:38.126Z,6.43
2019-05-28T08:26:07.606Z,5.90
2019-05-28T08:28:37.167Z,6.00
2019-05-28T08:31:15.993Z,5.80
2019-05-28T08:33:37.727Z,6.83
2019-05-28T08:36:07.254Z,6.90
2019-05-28T08:38:36.709Z,6.80
2019-05-28T08:41:06.203Z,10.37
2019-05-28T08:43:36.151Z,8.47
2019-05-28T08:46:05.666Z,8.00
2019-05-28T08:48:35.236Z,7.70
2019-05-28T08:51:04.822Z,8.20
2019-05-28T08:53:34.243Z,8.03
2019-05-28T08:56:03.643Z,8.80
2019-05-28T08:58:33.147Z,9.50
2019-05-28T09:01:02.810Z,9.45
2019-05-28T09:03:32.307Z,9.68
2019-05-28T09:06:01.816Z,8.60
2019-05-28T09:08:39.273Z,9.00
2019-05-28T09:11:02.516Z,10.78
2019-05-28T09:13:32.105Z,7.78
2019-05-28T09:16:01.605Z,8.68
2019-05-28T09:18:31.173Z,8.88
2019-05-28T09:21:00.745Z,8.63
2019-05-28T09:23:30.352Z,8.23
2019-05-28T09:25:59.965Z,10.95
2019-05-28T09:28:31.314Z,8.38
2019-05-28T09:31:00.948Z,8.53
2019-05-28T09:33:30.430Z,7.20
2019-05-28T09:36:07.893Z,6.70
2019-05-28T09:38:31.253Z,7.20
2019-05-28T09:41:00.725Z,7.03
2019-05-28T09:43:30.618Z,5.97
2019-05-28T09:46:00.129Z,6.83
2019-05-28T09:48:29.638Z,6.55
2019-05-28T09:50:59.128Z,6.70
2019-05-28T09:53:28.653Z,8.10
2019-05-28T09:55:58.229Z,8.20
2019-05-28T09:58:27.880Z,7.03
2019-05-28T10:00:59.099Z,8.58
2019-05-28T10:03:28.793Z,7.78
2019-05-28T10:06:15.089Z,7.25
2019-05-28T10:08:29.550Z,5.75
2019-05-28T10:10:59.112Z,6.00
2019-05-28T10:13:39.376Z,6.33
2019-05-28T10:15:59.760Z,5.90
2019-05-28T10:18:29.306Z,6.90
2019-05-28T10:21:16.571Z,7.15
2019-05-28T10:23:29.991Z,6.08
2019-05-28T10:25:59.591Z,7.37
2019-05-28T10:28:29.045Z,6.70
2019-05-28T10:30:58.575Z,5.20
2019-05-28T10:33:28.103Z,5.72
2019-05-28T10:35:57.659Z,5.80
2019-05-28T10:38:27.223Z,5.40
2019-05-28T10:40:56.778Z,4.70
2019-05-28T10:43:26.193Z,5.27
2019-05-28T10:45:55.770Z,5.15
2019-05-28T10:48:25.385Z,5.17
2019-05-28T10:50:54.875Z,5.73
2019-05-28T10:53:24.396Z,2.77
2019-05-28T10:55:54.237Z,3.50
2019-05-28T10:58:23.698Z,3.10
2019-05-28T11:00:53.211Z,2.90
2019-05-28T11:03:22.822Z,4.17
2019-05-28T11:05:52.363Z,4.83
2019-05-28T11:08:21.867Z,4.70
2019-05-28T11:10:51.343Z,4.50
2019-05-28T11:13:20.848Z,3.77
2019-05-28T11:15:50.350Z,2.87
2019-05-28T11:18:19.768Z,2.67
2019-05-28T11:20:49.394Z,2.30
2019-05-28T11:23:18.953Z,3.27
2019-05-28T11:25:48.495Z,2.10
2019-05-28T11:28:17.980Z,2.73
2019-05-28T11:30:47.399Z,3.10
2019-05-28T11:33:17.531Z,2.93
2019-05-28T11:35:47.239Z,3.80
2019-05-28T11:38:16.722Z,3.80
2019-05-28T11:40:46.221Z,4.00
2019-05-28T11:43:15.974Z,4.53
2019-05-28T11:45:45.705Z,6.93
2019-05-28T11:48:15.167Z,5.00
2019-05-28T11:50:44.729Z,6.60
2019-05-28T11:53:14.201Z,6.83
2019-05-28T11:55:43.760Z,8.10
2019-05-28T11:58:13.236Z,6.40
2019-05-28T12:00:42.883Z,6.30
2019-05-28T12:03:12.431Z,6.60
2019-05-28T12:05:42.040Z,4.80
2019-05-28T12:08:11.581Z,5.00
2019-05-28T12:10:41.125Z,5.30
2019-05-28T12:13:11.231Z,5.37
2019-05-28T12:15:41.023Z,5.50
2019-05-28T12:18:10.750Z,5.40
2019-05-28T12:20:40.215Z,5.50
2019-05-28T12:23:11.919Z,4.77
2019-05-28T12:25:41.108Z,5.07
2019-05-28T12:28:10.640Z,4.33
2019-05-28T12:30:40.142Z,4.10
2019-05-28T12:33:09.578Z,4.03
2019-05-28T12:35:42.659Z,4.43
2019-05-28T12:38:10.295Z,4.70
2019-05-28T12:40:47.948Z,4.63
2019-05-28T12:43:10.977Z,5.30
2019-05-28T12:45:40.539Z,5.47
2019-05-28T12:48:13.003Z,6.20
2019-05-28T12:50:41.420Z,6.10
2019-05-28T12:53:11.033Z,7.07
2019-05-28T12:55:40.714Z,6.78
2019-05-28T12:58:10.485Z,5.67
2019-05-28T13:00:40.325Z,6.83
2019-05-28T13:03:09.948Z,6.85
2019-05-28T13:05:39.628Z,7.13
2019-05-28T13:08:10.648Z,5.33
2019-05-28T13:10:42.578Z,5.78
2019-05-28T13:13:12.080Z,5.40
2019-05-28T13:16:04.782Z,5.08
2019-05-28T13:18:35.900Z,6.00
2019-05-28T13:21:05.513Z,5.20
2019-05-28T13:23:35.053Z,5.40
2019-05-28T13:26:04.577Z,5.90
2019-05-28T13:28:34.267Z,5.40
2019-05-28T13:31:03.900Z,5.58
2019-05-28T13:33:33.517Z,6.08
2019-05-28T13:36:03.366Z,5.50
2019-05-28T13:38:33.158Z,5.42
2019-05-28T13:41:02.819Z,5.17
2019-05-28T13:46:26.266Z,5.58
2019-05-28T13:48:56.178Z,6.12
2019-05-28T13:51:25.691Z,4.25
2019-05-28T13:53:55.892Z,4.72
2019-05-28T13:56:25.592Z,4.60
2019-05-28T13:59:01.467Z,4.87
2019-05-28T14:01:32.400Z,6.10
2019-05-28T14:04:02.089Z,4.70
2019-05-28T14:06:31.882Z,5.23
2019-05-28T14:09:01.318Z,4.83
2019-05-28T14:11:30.935Z,4.87
2019-05-28T14:14:00.435Z,5.00
2019-05-28T14:16:29.950Z,5.00
2019-05-28T14:18:59.410Z,4.27
2019-05-28T14:21:30.149Z,3.70
2019-05-28T14:24:00.847Z,3.50
2019-05-28T14:26:31.372Z,2.77
2019-05-28T14:29:01.292Z,2.83
2019-05-28T14:31:31.372Z,2.63
2019-05-28T14:34:01.075Z,2.83
2019-05-28T14:36:42.283Z,3.30
2019-05-28T14:39:12.732Z,2.43
2019-05-28T14:41:44.646Z,3.50
2019-05-28T14:44:14.459Z,2.40
2019-05-28T14:46:44.259Z,2.57
2019-05-28T14:49:13.837Z,3.30
2019-05-28T14:51:46.669Z,2.90
2019-05-28T14:57:08.079Z,3.10
2019-05-28T14:59:38.234Z,3.20
2019-05-28T15:02:07.737Z,3.00
2019-05-28T15:04:37.160Z,3.90
2019-05-28T15:07:06.784Z,3.23
2019-05-28T15:09:36.291Z,3.23
2019-05-28T15:12:05.801Z,3.70
2019-05-28T15:14:35.372Z,3.97
2019-05-28T15:17:04.903Z,3.37
2019-05-28T15:19:34.498Z,3.37
2019-05-28T15:22:04.001Z,3.93
2019-05-28T15:24:33.431Z,4.10
2019-05-28T15:27:03.077Z,3.43
2019-05-28T15:29:32.633Z,3.67
2019-05-28T15:32:02.746Z,3.87
2019-05-28T15:34:32.218Z,3.67
2019-05-28T15:37:01.746Z,4.03
2019-05-28T15:39:39.710Z,3.57
2019-05-28T15:42:02.428Z,3.87
2019-05-28T15:44:32.116Z,4.37
2019-05-28T15:47:01.616Z,3.70
2019-05-28T15:49:31.155Z,4.15
2019-05-28T15:52:07.689Z,4.93
2019-05-28T15:54:31.840Z,4.30
2019-05-28T15:57:01.756Z,4.60
2019-05-28T15:59:31.276Z,5.13
2019-05-28T16:02:00.758Z,3.87
2019-05-28T16:04:30.226Z,4.10
2019-05-28T16:06:59.740Z,3.40
2019-05-28T16:09:29.326Z,5.22
2019-05-28T16:11:59.116Z,3.40
2019-05-28T16:14:28.718Z,3.70
2019-05-28T16:16:58.240Z,3.37
2019-05-28T16:19:27.876Z,4.60
2019-05-28T16:21:57.512Z,3.57
2019-05-28T16:24:27.139Z,3.70
2019-05-28T16:26:57.097Z,3.92
2019-05-28T16:29:26.749Z,4.20
2019-05-28T16:31:56.299Z,4.20
2019-05-28T16:34:25.844Z,4.45
2019-05-28T16:36:57.873Z,4.30
2019-05-28T16:39:27.407Z,5.70
2019-05-28T16:41:57.113Z,4.90
2019-05-28T16:44:26.872Z,5.70
2019-05-28T16:47:14.752Z,5.12
2019-05-28T16:49:27.667Z,5.47
2019-05-28T16:51:57.260Z,6.20
2019-05-28T16:54:26.725Z,5.05
2019-05-28T16:56:56.313Z,5.30
2019-05-28T16:59:25.825Z,4.28
2019-05-28T17:01:55.342Z,5.45
2019-05-28T17:04:24.855Z,4.83
2019-05-28T17:06:54.345Z,5.97
2019-05-28T17:09:23.920Z,5.15
2019-05-28T17:11:53.677Z,4.53
2019-05-28T17:14:26.936Z,4.80
2019-05-28T17:16:54.423Z,5.53
2019-05-28T17:19:23.943Z,5.70
2019-05-28T17:21:53.485Z,4.58
2019-05-28T17:24:22.997Z,4.45
2019-05-28T17:26:52.555Z,4.53
2019-05-28T17:29:22.071Z,4.50
2019-05-28T17:31:51.668Z,4.25
2019-05-28T17:34:21.150Z,5.00
2019-05-28T17:36:50.636Z,4.30
2019-05-28T17:39:20.170Z,4.65
2019-05-28T17:41:49.682Z,5.40
2019-05-28T17:44:19.477Z,4.58
2019-05-28T17:46:48.970Z,5.08
2019-05-28T17:49:18.519Z,5.05
2019-05-28T17:51:48.240Z,5.03
2019-05-28T17:54:17.691Z,5.00
2019-05-28T17:56:47.242Z,5.00
2019-05-28T17:59:16.874Z,4.62
2019-05-28T18:01:46.787Z,4.67
2019-05-28T18:04:16.446Z,4.00
2019-05-28T18:06:45.965Z,4.87
2019-05-28T18:09:15.671Z,5.35
2019-05-28T18:11:45.257Z,4.72
2019-05-28T18:14:14.794Z,5.45
2019-05-28T18:16:44.321Z,5.10
2019-05-28T18:19:13.856Z,4.15
2019-05-28T18:21:43.435Z,3.70
2019-05-28T18:24:13.167Z,4.20
2019-05-28T18:26:42.649Z,4.60
2019-05-28T18:29:12.152Z,4.53
2019-05-28T18:31:41.653Z,4.37
2019-05-28T18:34:11.195Z,3.45
2019-05-28T18:36:40.702Z,4.20
2019-05-28T18:39:10.246Z,4.58
2019-05-28T18:41:39.760Z,4.40
2019-05-28T18:44:09.269Z,3.92
2019-05-28T18:46:38.794Z,4.55
2019-05-28T18:49:08.301Z,4.22
2019-05-28T18:51:38.937Z,4.70
2019-05-28T18:54:08.618Z,4.75
2019-05-28T18:56:38.181Z,4.35
2019-05-28T18:59:07.764Z,3.90
2019-05-28T19:01:37.256Z,3.80
2019-05-28T19:04:06.891Z,4.53
2019-05-28T19:06:36.348Z,4.55
2019-05-28T19:09:11.197Z,4.70
2019-05-28T19:11:39.557Z,5.12
2019-05-28T19:14:09.084Z,5.20
2019-05-28T19:16:38.515Z,4.80
2019-05-28T19:19:08.023Z,5.15
2019-05-28T19:21:37.532Z,5.50
2019-05-28T19:24:07.180Z,4.80
2019-05-28T19:26:36.699Z,6.47
2019-05-28T19:29:06.174Z,4.67
2019-05-28T19:31:35.698Z,4.83
2019-05-28T19:34:05.424Z,5.60
2019-05-28T19:36:35.357Z,5.45
2019-05-28T19:39:07.106Z,5.78
2019-05-28T19:41:36.616Z,5.37
2019-05-28T19:44:07.681Z,4.70
2019-05-28T19:46:37.159Z,4.85
2019-05-28T19:49:06.666Z,4.67
2019-05-28T19:51:36.138Z,4.80
2019-05-28T19:54:05.730Z,5.35
2019-05-28T19:56:35.259Z,3.75
2019-05-28T19:59:04.829Z,4.12
2019-05-28T20:01:34.360Z,3.60
2019-05-28T20:04:03.885Z,3.85
2019-05-28T20:06:33.389Z,3.58
2019-05-28T20:09:02.932Z,3.72
2019-05-28T20:11:32.467Z,4.10
2019-05-28T20:14:05.504Z,3.40
2019-05-28T20:16:33.233Z,2.90
2019-05-28T20:19:02.800Z,2.65
2019-05-28T20:21:32.232Z,2.67
2019-05-28T20:24:01.696Z,2.87
2019-05-28T20:26:31.115Z,2.15
2019-05-28T20:29:08.389Z,1.47
2019-05-28T20:31:31.828Z,2.20
2019-05-28T20:34:01.357Z,2.17
2019-05-28T20:36:30.838Z,1.90
2019-05-28T20:39:00.281Z,2.20
2019-05-28T20:41:29.773Z,2.40
2019-05-28T20:44:00.253Z,2.47
2019-05-28T20:46:29.783Z,2.55
2019-05-28T20:49:00.527Z,2.60
2019-05-28T20:51:30.090Z,1.80
2019-05-28T20:53:59.611Z,2.25
2019-05-28T20:56:29.031Z,2.20
2019-05-28T20:59:01.279Z,1.85
2019-05-28T21:01:29.652Z,1.60
2019-05-28T21:03:59.157Z,2.37
2019-05-28T21:06:28.688Z,2.27
2019-05-28T21:08:58.339Z,1.57
2019-05-28T21:11:27.779Z,1.27
2019-05-28T21:13:57.356Z,1.70
2019-05-28T21:16:26.827Z,1.25
2019-05-28T21:18:57.311Z,1.80
2019-05-28T21:21:26.814Z,1.35
2019-05-28T21:23:56.326Z,1.30
2019-05-28T21:26:25.925Z,1.70
2019-05-28T21:28:56.428Z,2.10
2019-05-28T21:31:26.107Z,1.50
2019-05-28T21:33:55.646Z,1.70
2019-05-28T21:36:25.267Z,2.12
2019-05-28T21:38:55.274Z,1.85
2019-05-28T21:41:24.839Z,1.62
2019-05-28T21:43:54.427Z,1.75
2019-05-28T21:46:23.893Z,1.82
2019-05-28T21:48:54.483Z,2.05
2019-05-28T21:51:23.976Z,1.65
2019-05-28T21:53:53.430Z,1.35
2019-05-28T21:56:22.913Z,1.72
2019-05-28T21:58:53.324Z,1.52
2019-05-28T22:01:25.940Z,1.98
2019-05-28T22:03:55.455Z,1.62
2019-05-28T22:06:24.969Z,1.45
2019-05-28T22:08:55.562Z,1.52
2019-05-28T22:11:25.118Z,2.30
2019-05-28T22:13:54.611Z,1.70
2019-05-28T22:16:24.056Z,1.20
2019-05-28T22:18:53.507Z,1.30
2019-05-28T22:21:23.066Z,2.00
2019-05-28T22:23:52.481Z,1.80
2019-05-28T22:26:22.005Z,1.70
2019-05-28T22:28:51.614Z,1.60
2019-05-28T22:31:21.310Z,1.60
2019-05-28T22:33:50.767Z,1.70
2019-05-28T22:36:20.291Z,2.25
2019-05-28T22:39:08.964Z,1.45
2019-05-28T22:41:40.147Z,2.02
2019-05-28T22:44:09.712Z,1.40
2019-05-28T22:46:39.257Z,1.75
2019-05-28T22:49:08.697Z,1.65
2019-05-28T22:51:38.152Z,2.33
2019-05-28T22:54:08.053Z,1.60
2019-05-28T22:56:37.607Z,1.57
2019-05-28T22:59:07.105Z,1.60
2019-05-28T23:01:36.823Z,1.30
2019-05-28T23:04:07.078Z,1.55
2019-05-28T23:06:36.569Z,1.85
2019-05-28T23:09:07.778Z,1.90
2019-05-28T23:11:37.329Z,1.85
2019-05-28T23:14:08.129Z,1.57
2019-05-28T23:16:38.183Z,1.72
2019-05-28T23:19:08.759Z,2.30
2019-05-28T23:21:38.319Z,1.75
2019-05-28T23:24:07.824Z,1.75
2019-05-28T23:26:37.378Z,1.70
2019-05-28T23:29:07.805Z,1.70
2019-05-28T23:31:37.307Z,1.50
2019-05-28T23:34:06.725Z,1.75
2019-05-28T23:36:36.219Z,2.00
2019-05-28T23:39:07.051Z,1.87
2019-05-28T23:41:36.519Z,1.35
2019-05-28T23:44:06.162Z,1.92
2019-05-28T23:46:35.625Z,1.40
2019-05-28T23:49:06.035Z,1.87
2019-05-28T23:51:35.609Z,2.70
2019-05-28T23:54:05.619Z,1.90
2019-05-28T23:56:35.055Z,1.57
2019-05-28T23:59:05.573Z,1.75
